Portada
METAR-TAF:

METAR-TAF

Aeropuertos :

Aeropuerto de Barcelona-El Prat

Barcelona, España

latitud: 41-17N, longitud: 002-04E, altitud: 4 m

Observación

El informe se hizo hace 31 minutos, a las 01:30 UTC
Viento 11 kt del norte-noroeste
Temperatura 11°C
Humedad 66%
Presión 1027 hPa
Visibilidad 10 km o más
sin nubes por debajo de 1500 m y sin presencia de cumulonimbus.

METAR: LEBL 100130Z 33011KT CAVOK 11/05 Q1027 NOSIG

Hora: 03:01 (02:01 UTC)

Pronóstico

El informe se hizo hace 3 horas y 1 minutos, a las 23:00 UTC
Pronóstico válido del 10 a las 00 UTC al 10 a las 24 UTC
Viento 12 kt del norte-noroeste
Visibilidad 10 km o más
Escasas nubes a una altura de 4000 ft
Temporalmente
del 10 a las 14 UTC al 10 a las 18 UTC
Viento 8 kt del sur-sureste

TAF: LEBL 092300Z 1000/1024 34012KT 9999 FEW040 TX15/1012Z TN08/1006Z TEMPO 1014/1018 15008KT

Observaciones y pronósticos meteorológicos de más de 4000 aeropuertos (mensajes METAR y TAF).

Los puntos amarillos y rojos representan las estaciones disponibles.

Ponga el ratón en el punto deseado para ver el nombre de la estación.

Haga clic para ver las observaciones y los pronósticos meteorológicos.

Para cambiar el mapa : haga clic en los botones verdes con una cruz de color negro para hacer un zoom, en el botón verde con un guión para alejar o en las flechas verdes para mapas adyacentes.


METAR-TAF: